sensor_id;sensor_type;location;lat;lon;timestamp;P1;P2;P0
77692;PMS5003;66984;47.404;18.836;2023-05-24T00:00:08;8.00;8.00;3.00
77692;PMS5003;66984;47.404;18.836;2023-05-24T00:01:14;8.00;8.00;2.00
77692;PMS5003;66984;47.404;18.836;2023-05-24T00:02:18;8.00;6.75;3.75
77692;PMS5003;66984;47.404;18.836;2023-05-24T00:03:21;8.00;8.00;3.00
77692;PMS5003;66984;47.404;18.836;2023-05-24T00:04:24;8.25;8.00;4.00
77692;PMS5003;66984;47.404;18.836;2023-05-24T00:05:31;11.00;10.00;4.00
77692;PMS5003;66984;47.404;18.836;2023-05-24T00:06:39;7.00;6.25;2.00
77692;PMS5003;66984;47.404;18.836;2023-05-24T00:07:43;9.50;8.50;4.00
77692;PMS5003;66984;47.404;18.836;2023-05-24T00:08:45;9.00;9.00;4.00
77692;PMS5003;66984;47.404;18.836;2023-05-24T00:09:48;11.00;9.00;4.00
77692;PMS5003;66984;47.404;18.836;2023-05-24T00:10:51;9.50;9.50;3.50
77692;PMS5003;66984;47.404;18.836;2023-05-24T00:11:54;9.00;8.00;5.00
77692;PMS5003;66984;47.404;18.836;2023-05-24T00:12:57;8.00;8.00;4.50
77692;PMS5003;66984;47.404;18.836;2023-05-24T00:14:00;8.00;8.00;4.00
77692;PMS5003;66984;47.404;18.836;2023-05-24T00:15:03;8.00;8.00;4.00
77692;PMS5003;66984;47.404;18.836;2023-05-24T00:16:06;8.00;8.00;4.00
77692;PMS5003;66984;47.404;18.836;2023-05-24T00:17:09;9.00;8.00;4.50
77692;PMS5003;66984;47.404;18.836;2023-05-24T00:18:14;8.00;8.00;3.00
77692;PMS5003;66984;47.404;18.836;2023-05-24T00:19:19;10.75;8.00;3.50
77692;PMS5003;66984;47.404;18.836;2023-05-24T00:20:24;9.00;9.00;3.50
77692;PMS5003;66984;47.404;18.836;2023-05-24T00:21:27;10.00;10.00;4.00
77692;PMS5003;66984;47.404;18.836;2023-05-24T00:22:29;11.00;11.00;4.00
77692;PMS5003;66984;47.404;18.836;2023-05-24T00:23:33;10.00;9.25;5.00
77692;PMS5003;66984;47.404;18.836;2023-05-24T00:24:36;9.00;9.00;4.00
77692;PMS5003;66984;47.404;18.836;2023-05-24T00:25:39;8.00;8.00;3.00
77692;PMS5003;66984;47.404;18.836;2023-05-24T00:26:42;11.00;9.00;4.00
77692;PMS5003;66984;47.404;18.836;2023-05-24T00:27:45;10.50;8.50;4.00
77692;PMS5003;66984;47.404;18.836;2023-05-24T00:28:48;11.00;10.00;5.00
77692;PMS5003;66984;47.404;18.836;2023-05-24T00:29:51;7.50;7.50;4.00
77692;PMS5003;66984;47.404;18.836;2023-05-24T00:30:54;10.50;10.50;4.00
77692;PMS5003;66984;47.404;18.836;2023-05-24T00:31:57;9.25;9.25;5.00
77692;PMS5003;66984;47.404;18.836;2023-05-24T00:33:00;9.25;9.25;5.00
77692;PMS5003;66984;47.404;18.836;2023-05-24T00:34:03;12.00;11.00;4.00
77692;PMS5003;66984;47.404;18.836;2023-05-24T00:35:06;11.75;9.00;4.00
77692;PMS5003;66984;47.404;18.836;2023-05-24T00:36:09;10.00;8.00;3.00
77692;PMS5003;66984;47.404;18.836;2023-05-24T00:37:12;11.50;9.50;4.00
77692;PMS5003;66984;47.404;18.836;2023-05-24T00:38:15;13.00;10.50;4.00
77692;PMS5003;66984;47.404;18.836;2023-05-24T00:39:18;12.00;12.00;5.00
77692;PMS5003;66984;47.404;18.836;2023-05-24T00:40:21;10.00;10.00;4.00
77692;PMS5003;66984;47.404;18.836;2023-05-24T00:41:24;10.00;10.00;5.00
77692;PMS5003;66984;47.404;18.836;2023-05-24T00:42:27;9.25;9.25;3.00
77692;PMS5003;66984;47.404;18.836;2023-05-24T00:43:30;8.00;7.00;4.00
77692;PMS5003;66984;47.404;18.836;2023-05-24T00:44:33;9.50;8.75;5.00
77692;PMS5003;66984;47.404;18.836;2023-05-24T00:45:36;10.00;9.00;5.00
77692;PMS5003;66984;47.404;18.836;2023-05-24T00:46:39;11.00;10.00;5.00
77692;PMS5003;66984;47.404;18.836;2023-05-24T00:47:43;8.00;8.00;4.00
77692;PMS5003;66984;47.404;18.836;2023-05-24T00:48:49;8.00;8.00;3.50
77692;PMS5003;66984;47.404;18.836;2023-05-24T00:49:53;10.00;8.50;3.50
77692;PMS5003;66984;47.404;18.836;2023-05-24T00:50:56;11.25;9.25;3.75
77692;PMS5003;66984;47.404;18.836;2023-05-24T00:51:59;12.25;9.00;4.00
77692;PMS5003;66984;47.404;18.836;2023-05-24T00:53:02;11.00;8.50;4.00
77692;PMS5003;66984;47.404;18.836;2023-05-24T00:54:06;11.50;9.75;5.00
77692;PMS5003;66984;47.404;18.836;2023-05-24T00:55:09;8.00;7.00;4.00
77692;PMS5003;66984;47.404;18.836;2023-05-24T00:56:13;11.50;10.25;4.00
77692;PMS5003;66984;47.404;18.836;2023-05-24T00:57:16;15.00;13.00;6.00
77692;PMS5003;66984;47.404;18.836;2023-05-24T00:58:20;12.00;11.00;5.00
77692;PMS5003;66984;47.404;18.836;2023-05-24T00:59:28;11.50;11.50;5.00
77692;PMS5003;66984;47.404;18.836;2023-05-24T01:00:31;11.25;10.00;4.25
77692;PMS5003;66984;47.404;18.836;2023-05-24T01:01:34;9.00;8.50;4.00
77692;PMS5003;66984;47.404;18.836;2023-05-24T01:02:38;8.75;8.75;4.00
77692;PMS5003;66984;47.404;18.836;2023-05-24T01:03:41;11.00;11.00;4.00
77692;PMS5003;66984;47.404;18.836;2023-05-24T01:04:44;10.00;9.75;4.00
77692;PMS5003;66984;47.404;18.836;2023-05-24T01:05:50;12.00;11.00;4.00
77692;PMS5003;66984;47.404;18.836;2023-05-24T01:07:03;10.00;9.00;4.00
77692;PMS5003;66984;47.404;18.836;2023-05-24T01:08:14;11.00;11.00;4.00
77692;PMS5003;66984;47.404;18.836;2023-05-24T01:09:33;11.00;11.00;4.75
77692;PMS5003;66984;47.404;18.836;2023-05-24T01:12:23;12.00;10.00;4.00
77692;PMS5003;66984;47.404;18.836;2023-05-24T01:13:37;11.50;11.50;4.00
77692;PMS5003;66984;47.404;18.836;2023-05-24T01:16:37;12.00;12.00;5.00
77692;PMS5003;66984;47.404;18.836;2023-05-24T01:20:28;16.75;16.75;6.00
77692;PMS5003;66984;47.404;18.836;2023-05-24T01:23:04;16.00;14.00;6.00
77692;PMS5003;66984;47.404;18.836;2023-05-24T01:24:20;16.50;14.00;5.00
77692;PMS5003;66984;47.404;18.836;2023-05-24T01:28:08;16.75;15.00;6.00
77692;PMS5003;66984;47.404;18.836;2023-05-24T01:29:13;16.00;16.00;7.00
77692;PMS5003;66984;47.404;18.836;2023-05-24T01:30:17;17.00;16.00;6.00
77692;PMS5003;66984;47.404;18.836;2023-05-24T01:31:21;15.25;14.25;6.75
77692;PMS5003;66984;47.404;18.836;2023-05-24T01:32:25;17.00;16.00;7.25
77692;PMS5003;66984;47.404;18.836;2023-05-24T01:33:28;15.00;13.25;6.00
77692;PMS5003;66984;47.404;18.836;2023-05-24T01:34:32;14.25;14.00;5.50
77692;PMS5003;66984;47.404;18.836;2023-05-24T01:35:35;18.00;15.00;6.25
77692;PMS5003;66984;47.404;18.836;2023-05-24T01:36:41;18.00;17.00;6.00
77692;PMS5003;66984;47.404;18.836;2023-05-24T01:37:44;20.00;18.25;7.75
77692;PMS5003;66984;47.404;18.836;2023-05-24T01:38:47;19.75;18.00;5.75
77692;PMS5003;66984;47.404;18.836;2023-05-24T01:39:52;19.00;17.75;6.00
77692;PMS5003;66984;47.404;18.836;2023-05-24T01:40:57;19.00;18.00;8.00
77692;PMS5003;66984;47.404;18.836;2023-05-24T01:42:26;18.50;17.00;6.00
77692;PMS5003;66984;47.404;18.836;2023-05-24T01:43:40;16.00;14.00;5.50
77692;PMS5003;66984;47.404;18.836;2023-05-24T01:48:53;22.25;19.25;8.00
77692;PMS5003;66984;47.404;18.836;2023-05-24T01:50:06;20.75;20.00;8.00
77692;PMS5003;66984;47.404;18.836;2023-05-24T01:51:19;20.50;20.00;7.00
77692;PMS5003;66984;47.404;18.836;2023-05-24T01:52:26;22.50;20.50;8.00
77692;PMS5003;66984;47.404;18.836;2023-05-24T01:53:33;20.50;19.00;8.00
77692;PMS5003;66984;47.404;18.836;2023-05-24T01:54:42;21.00;19.75;8.75
77692;PMS5003;66984;47.404;18.836;2023-05-24T01:55:47;20.00;20.00;7.00
77692;PMS5003;66984;47.404;18.836;2023-05-24T01:56:52;20.00;20.00;7.00
77692;PMS5003;66984;47.404;18.836;2023-05-24T01:57:57;19.00;18.00;8.00
77692;PMS5003;66984;47.404;18.836;2023-05-24T01:59:03;19.50;18.25;8.00
77692;PMS5003;66984;47.404;18.836;2023-05-24T02:00:08;23.50;20.50;8.00
77692;PMS5003;66984;47.404;18.836;2023-05-24T02:01:12;22.75;21.00;8.00
77692;PMS5003;66984;47.404;18.836;2023-05-24T02:02:16;21.00;21.00;6.00
77692;PMS5003;66984;47.404;18.836;2023-05-24T02:03:20;21.00;20.00;8.00
77692;PMS5003;66984;47.404;18.836;2023-05-24T02:04:23;21.50;20.50;9.00
77692;PMS5003;66984;47.404;18.836;2023-05-24T02:05:28;22.00;20.50;9.00
77692;PMS5003;66984;47.404;18.836;2023-05-24T02:06:31;22.00;20.00;9.00
77692;PMS5003;66984;47.404;18.836;2023-05-24T02:07:33;22.50;21.50;9.50
77692;PMS5003;66984;47.404;18.836;2023-05-24T02:08:36;21.00;21.00;8.00
77692;PMS5003;66984;47.404;18.836;2023-05-24T02:09:39;19.00;19.00;6.00
77692;PMS5003;66984;47.404;18.836;2023-05-24T02:10:42;21.00;19.75;8.00
77692;PMS5003;66984;47.404;18.836;2023-05-24T02:11:45;20.00;20.00;8.00
77692;PMS5003;66984;47.404;18.836;2023-05-24T02:12:48;20.25;20.00;8.00
77692;PMS5003;66984;47.404;18.836;2023-05-24T02:13:51;21.00;19.00;8.00
77692;PMS5003;66984;47.404;18.836;2023-05-24T02:14:54;21.50;20.50;8.00
77692;PMS5003;66984;47.404;18.836;2023-05-24T02:15:58;21.75;21.00;10.00
77692;PMS5003;66984;47.404;18.836;2023-05-24T02:17:01;21.00;21.00;9.00
77692;PMS5003;66984;47.404;18.836;2023-05-24T02:18:04;22.00;22.00;8.00
77692;PMS5003;66984;47.404;18.836;2023-05-24T02:19:09;21.75;21.25;9.00
77692;PMS5003;66984;47.404;18.836;2023-05-24T02:20:12;23.25;21.00;9.00
77692;PMS5003;66984;47.404;18.836;2023-05-24T02:21:15;21.50;19.75;8.75
77692;PMS5003;66984;47.404;18.836;2023-05-24T02:22:18;24.00;21.00;9.25
77692;PMS5003;66984;47.404;18.836;2023-05-24T02:23:23;24.00;20.00;8.00
77692;PMS5003;66984;47.404;18.836;2023-05-24T02:24:26;22.50;21.00;9.50
77692;PMS5003;66984;47.404;18.836;2023-05-24T02:25:29;23.75;22.25;11.00
77692;PMS5003;66984;47.404;18.836;2023-05-24T02:26:33;25.50;23.50;10.00
77692;PMS5003;66984;47.404;18.836;2023-05-24T02:27:36;24.50;23.00;10.00
77692;PMS5003;66984;47.404;18.836;2023-05-24T02:28:39;21.75;21.75;9.00
77692;PMS5003;66984;47.404;18.836;2023-05-24T02:29:42;20.25;19.75;8.00
77692;PMS5003;66984;47.404;18.836;2023-05-24T02:30:45;22.25;22.00;10.75
77692;PMS5003;66984;47.404;18.836;2023-05-24T02:31:48;23.50;23.00;11.00
77692;PMS5003;66984;47.404;18.836;2023-05-24T02:32:56;23.00;20.00;8.00
77692;PMS5003;66984;47.404;18.836;2023-05-24T02:34:00;23.50;22.00;10.00
77692;PMS5003;66984;47.404;18.836;2023-05-24T02:35:03;22.00;21.75;9.25
77692;PMS5003;66984;47.404;18.836;2023-05-24T02:36:06;22.25;21.50;9.00
77692;PMS5003;66984;47.404;18.836;2023-05-24T02:37:09;23.50;22.50;10.00
77692;PMS5003;66984;47.404;18.836;2023-05-24T02:38:15;22.00;22.00;10.50
77692;PMS5003;66984;47.404;18.836;2023-05-24T02:39:18;24.50;23.50;11.00
77692;PMS5003;66984;47.404;18.836;2023-05-24T02:40:22;24.00;23.00;10.00
77692;PMS5003;66984;47.404;18.836;2023-05-24T02:41:25;22.00;22.00;8.25
77692;PMS5003;66984;47.404;18.836;2023-05-24T02:42:28;24.75;22.00;10.00
77692;PMS5003;66984;47.404;18.836;2023-05-24T02:43:31;23.50;22.50;10.00
77692;PMS5003;66984;47.404;18.836;2023-05-24T02:44:34;26.75;23.00;10.00
77692;PMS5003;66984;47.404;18.836;2023-05-24T02:45:37;24.75;23.50;8.75
77692;PMS5003;66984;47.404;18.836;2023-05-24T02:46:40;25.00;23.50;10.25
77692;PMS5003;66984;47.404;18.836;2023-05-24T02:47:43;24.50;22.25;9.25
77692;PMS5003;66984;47.404;18.836;2023-05-24T02:48:45;23.50;22.50;12.00
77692;PMS5003;66984;47.404;18.836;2023-05-24T02:49:48;24.50;23.25;12.00
77692;PMS5003;66984;47.404;18.836;2023-05-24T02:50:51;24.50;22.00;12.25
77692;PMS5003;66984;47.404;18.836;2023-05-24T02:51:54;22.50;22.00;9.50
77692;PMS5003;66984;47.404;18.836;2023-05-24T02:52:58;23.50;21.75;11.00
77692;PMS5003;66984;47.404;18.836;2023-05-24T02:54:00;27.25;24.50;11.25
77692;PMS5003;66984;47.404;18.836;2023-05-24T02:55:04;25.00;23.50;10.00
77692;PMS5003;66984;47.404;18.836;2023-05-24T02:56:07;24.50;23.50;10.50
77692;PMS5003;66984;47.404;18.836;2023-05-24T02:57:10;25.50;24.75;11.50
77692;PMS5003;66984;47.404;18.836;2023-05-24T02:58:13;25.00;25.00;11.50
77692;PMS5003;66984;47.404;18.836;2023-05-24T02:59:19;23.50;22.50;10.00
77692;PMS5003;66984;47.404;18.836;2023-05-24T03:00:22;26.75;23.00;11.25
77692;PMS5003;66984;47.404;18.836;2023-05-24T03:01:25;27.00;23.50;11.75
77692;PMS5003;66984;47.404;18.836;2023-05-24T03:02:28;25.00;22.50;12.75
77692;PMS5003;66984;47.404;18.836;2023-05-24T03:03:31;27.00;24.25;13.00
77692;PMS5003;66984;47.404;18.836;2023-05-24T03:04:34;25.00;24.00;12.00
77692;PMS5003;66984;47.404;18.836;2023-05-24T03:05:37;26.00;25.00;12.00
77692;PMS5003;66984;47.404;18.836;2023-05-24T03:06:40;26.00;23.75;11.00
77692;PMS5003;66984;47.404;18.836;2023-05-24T03:07:43;26.00;23.50;11.00
77692;PMS5003;66984;47.404;18.836;2023-05-24T03:08:46;28.00;26.00;14.00
77692;PMS5003;66984;47.404;18.836;2023-05-24T03:09:50;26.00;24.00;13.50
77692;PMS5003;66984;47.404;18.836;2023-05-24T03:10:53;29.00;26.00;13.00
77692;PMS5003;66984;47.404;18.836;2023-05-24T03:11:56;27.75;24.50;13.75
77692;PMS5003;66984;47.404;18.836;2023-05-24T03:12:59;28.50;25.50;13.00
77692;PMS5003;66984;47.404;18.836;2023-05-24T03:14:02;28.00;27.00;12.00
77692;PMS5003;66984;47.404;18.836;2023-05-24T03:15:05;32.00;28.00;14.00
77692;PMS5003;66984;47.404;18.836;2023-05-24T03:16:08;28.50;26.00;15.00
77692;PMS5003;66984;47.404;18.836;2023-05-24T03:17:12;28.00;26.00;15.75
77692;PMS5003;66984;47.404;18.836;2023-05-24T03:18:14;26.25;25.00;16.00
77692;PMS5003;66984;47.404;18.836;2023-05-24T03:19:17;26.00;24.00;14.00
77692;PMS5003;66984;47.404;18.836;2023-05-24T03:20:20;29.00;27.00;16.00
77692;PMS5003;66984;47.404;18.836;2023-05-24T03:21:25;32.00;29.25;15.00
77692;PMS5003;66984;47.404;18.836;2023-05-24T03:22:28;30.25;27.00;14.25
77692;PMS5003;66984;47.404;18.836;2023-05-24T03:23:32;32.00;28.00;16.00
77692;PMS5003;66984;47.404;18.836;2023-05-24T03:24:35;30.00;27.00;17.00
77692;PMS5003;66984;47.404;18.836;2023-05-24T03:25:39;30.00;26.00;16.00
77692;PMS5003;66984;47.404;18.836;2023-05-24T03:26:42;25.00;24.50;14.00
77692;PMS5003;66984;47.404;18.836;2023-05-24T03:27:45;28.00;26.00;14.00
77692;PMS5003;66984;47.404;18.836;2023-05-24T03:28:48;29.00;28.00;15.75
77692;PMS5003;66984;47.404;18.836;2023-05-24T03:29:55;29.00;27.00;16.00
77692;PMS5003;66984;47.404;18.836;2023-05-24T03:30:58;28.25;27.75;15.00
77692;PMS5003;66984;47.404;18.836;2023-05-24T03:32:01;29.25;27.25;15.00
77692;PMS5003;66984;47.404;18.836;2023-05-24T03:33:04;28.00;26.00;15.00
77692;PMS5003;66984;47.404;18.836;2023-05-24T03:34:07;27.00;25.75;16.00
77692;PMS5003;66984;47.404;18.836;2023-05-24T03:35:10;28.00;27.00;15.00
77692;PMS5003;66984;47.404;18.836;2023-05-24T03:36:16;29.50;27.00;15.00
77692;PMS5003;66984;47.404;18.836;2023-05-24T03:37:19;29.00;25.50;14.00
77692;PMS5003;66984;47.404;18.836;2023-05-24T03:38:22;30.00;28.00;16.00
77692;PMS5003;66984;47.404;18.836;2023-05-24T03:39:25;32.25;29.50;17.00
77692;PMS5003;66984;47.404;18.836;2023-05-24T03:40:28;30.50;28.00;16.00
77692;PMS5003;66984;47.404;18.836;2023-05-24T03:41:34;29.00;26.50;15.00
77692;PMS5003;66984;47.404;18.836;2023-05-24T03:42:37;28.00;26.50;16.00
77692;PMS5003;66984;47.404;18.836;2023-05-24T03:43:40;28.25;26.00;15.00
77692;PMS5003;66984;47.404;18.836;2023-05-24T03:44:43;29.00;27.00;16.00
77692;PMS5003;66984;47.404;18.836;2023-05-24T03:45:46;27.00;26.00;15.00
77692;PMS5003;66984;47.404;18.836;2023-05-24T03:46:49;30.00;26.00;14.50
77692;PMS5003;66984;47.404;18.836;2023-05-24T03:47:52;30.00;26.50;15.00
77692;PMS5003;66984;47.404;18.836;2023-05-24T03:48:55;27.00;25.50;16.00
77692;PMS5003;66984;47.404;18.836;2023-05-24T03:49:58;27.25;25.50;15.00
77692;PMS5003;66984;47.404;18.836;2023-05-24T03:51:01;29.25;27.50;16.00
77692;PMS5003;66984;47.404;18.836;2023-05-24T03:52:04;29.00;27.50;16.00
77692;PMS5003;66984;47.404;18.836;2023-05-24T03:53:07;30.00;28.50;16.00
77692;PMS5003;66984;47.404;18.836;2023-05-24T03:54:10;30.50;28.00;17.00
77692;PMS5003;66984;47.404;18.836;2023-05-24T03:55:13;28.00;28.00;18.00
77692;PMS5003;66984;47.404;18.836;2023-05-24T03:56:16;27.50;26.25;17.00
77692;PMS5003;66984;47.404;18.836;2023-05-24T03:57:19;27.50;27.50;15.00
77692;PMS5003;66984;47.404;18.836;2023-05-24T03:58:22;26.50;26.50;15.00
77692;PMS5003;66984;47.404;18.836;2023-05-24T03:59:25;28.75;28.50;14.75
77692;PMS5003;66984;47.404;18.836;2023-05-24T04:00:28;27.50;26.50;15.75
77692;PMS5003;66984;47.404;18.836;2023-05-24T04:01:31;28.00;26.75;17.00
77692;PMS5003;66984;47.404;18.836;2023-05-24T04:02:35;29.00;27.00;17.00
77692;PMS5003;66984;47.404;18.836;2023-05-24T04:03:41;30.00;28.00;16.00
77692;PMS5003;66984;47.404;18.836;2023-05-24T04:04:44;31.50;28.50;16.00
77692;PMS5003;66984;47.404;18.836;2023-05-24T04:05:47;29.00;27.00;15.00
77692;PMS5003;66984;47.404;18.836;2023-05-24T04:06:50;30.50;27.75;15.00
77692;PMS5003;66984;47.404;18.836;2023-05-24T04:07:53;30.00;28.50;15.00
77692;PMS5003;66984;47.404;18.836;2023-05-24T04:08:57;31.50;28.50;14.00
77692;PMS5003;66984;47.404;18.836;2023-05-24T04:10:04;28.50;26.50;14.00
77692;PMS5003;66984;47.404;18.836;2023-05-24T04:11:08;31.00;28.00;14.00
77692;PMS5003;66984;47.404;18.836;2023-05-24T04:12:10;31.50;28.50;15.00
77692;PMS5003;66984;47.404;18.836;2023-05-24T04:13:13;30.50;29.00;15.00
77692;PMS5003;66984;47.404;18.836;2023-05-24T04:14:16;31.75;30.25;16.25
77692;PMS5003;66984;47.404;18.836;2023-05-24T04:15:19;33.00;30.50;17.00
77692;PMS5003;66984;47.404;18.836;2023-05-24T04:16:22;32.00;29.00;17.00
77692;PMS5003;66984;47.404;18.836;2023-05-24T04:17:27;31.00;28.50;16.00
77692;PMS5003;66984;47.404;18.836;2023-05-24T04:18:36;31.75;29.50;17.00
77692;PMS5003;66984;47.404;18.836;2023-05-24T04:19:39;31.00;28.50;15.00
77692;PMS5003;66984;47.404;18.836;2023-05-24T04:20:42;31.00;29.00;16.25
77692;PMS5003;66984;47.404;18.836;2023-05-24T04:21:45;32.50;29.25;17.00
77692;PMS5003;66984;47.404;18.836;2023-05-24T04:22:48;30.50;29.00;17.00
77692;PMS5003;66984;47.404;18.836;2023-05-24T04:23:51;30.25;29.00;17.00
77692;PMS5003;66984;47.404;18.836;2023-05-24T04:24:54;32.50;29.00;17.00
77692;PMS5003;66984;47.404;18.836;2023-05-24T04:25:57;33.50;30.00;18.00
77692;PMS5003;66984;47.404;18.836;2023-05-24T04:27:00;32.00;30.00;17.00
77692;PMS5003;66984;47.404;18.836;2023-05-24T04:28:03;31.00;29.00;17.00
77692;PMS5003;66984;47.404;18.836;2023-05-24T04:29:06;29.75;28.50;17.00
77692;PMS5003;66984;47.404;18.836;2023-05-24T04:30:10;29.00;29.00;17.00
77692;PMS5003;66984;47.404;18.836;2023-05-24T04:31:13;31.00;29.00;17.00
77692;PMS5003;66984;47.404;18.836;2023-05-24T04:32:17;31.50;30.00;18.00
77692;PMS5003;66984;47.404;18.836;2023-05-24T04:33:21;32.50;29.50;18.00
77692;PMS5003;66984;47.404;18.836;2023-05-24T04:34:24;32.25;29.00;18.00
77692;PMS5003;66984;47.404;18.836;2023-05-24T04:35:27;31.75;29.50;17.75
77692;PMS5003;66984;47.404;18.836;2023-05-24T04:36:31;32.25;29.00;17.00
77692;PMS5003;66984;47.404;18.836;2023-05-24T04:37:35;31.00;27.00;16.00
77692;PMS5003;66984;47.404;18.836;2023-05-24T04:38:38;31.50;28.50;15.00
77692;PMS5003;66984;47.404;18.836;2023-05-24T04:39:45;29.25;28.25;16.00
77692;PMS5003;66984;47.404;18.836;2023-05-24T04:40:48;28.00;26.50;15.00
77692;PMS5003;66984;47.404;18.836;2023-05-24T04:41:51;30.00;27.00;15.00
77692;PMS5003;66984;47.404;18.836;2023-05-24T04:42:54;28.75;27.50;16.00
77692;PMS5003;66984;47.404;18.836;2023-05-24T04:43:57;29.25;28.25;16.00
77692;PMS5003;66984;47.404;18.836;2023-05-24T04:45:03;30.00;27.50;16.00
77692;PMS5003;66984;47.404;18.836;2023-05-24T04:46:06;29.50;26.00;15.00
77692;PMS5003;66984;47.404;18.836;2023-05-24T04:47:10;28.00;25.75;15.00
77692;PMS5003;66984;47.404;18.836;2023-05-24T04:48:14;29.00;28.00;16.00
77692;PMS5003;66984;47.404;18.836;2023-05-24T04:49:17;29.25;28.25;16.00
77692;PMS5003;66984;47.404;18.836;2023-05-24T04:50:19;28.75;27.00;16.00
77692;PMS5003;66984;47.404;18.836;2023-05-24T04:51:22;28.50;27.50;14.00
77692;PMS5003;66984;47.404;18.836;2023-05-24T04:52:25;28.00;27.00;14.00
77692;PMS5003;66984;47.404;18.836;2023-05-24T04:53:29;31.25;28.00;14.00
77692;PMS5003;66984;47.404;18.836;2023-05-24T04:54:32;28.00;27.00;14.00
77692;PMS5003;66984;47.404;18.836;2023-05-24T04:55:35;30.50;27.75;15.00
77692;PMS5003;66984;47.404;18.836;2023-05-24T04:56:38;31.00;26.75;13.75
77692;PMS5003;66984;47.404;18.836;2023-05-24T04:57:41;27.00;25.00;13.00
77692;PMS5003;66984;47.404;18.836;2023-05-24T04:58:44;26.25;25.00;13.50
77692;PMS5003;66984;47.404;18.836;2023-05-24T04:59:47;28.50;26.75;14.00
77692;PMS5003;66984;47.404;18.836;2023-05-24T05:00:50;27.25;25.00;14.00
77692;PMS5003;66984;47.404;18.836;2023-05-24T05:01:53;30.25;28.00;16.00
77692;PMS5003;66984;47.404;18.836;2023-05-24T05:02:57;28.50;27.50;16.00
77692;PMS5003;66984;47.404;18.836;2023-05-24T05:04:01;25.50;25.50;15.50
77692;PMS5003;66984;47.404;18.836;2023-05-24T05:05:06;26.00;25.00;16.00
77692;PMS5003;66984;47.404;18.836;2023-05-24T05:06:09;30.00;26.00;15.00
77692;PMS5003;66984;47.404;18.836;2023-05-24T05:07:12;28.25;26.25;14.00
77692;PMS5003;66984;47.404;18.836;2023-05-24T05:08:15;29.00;27.00;16.00
77692;PMS5003;66984;47.404;18.836;2023-05-24T05:09:18;30.00;28.00;17.50
77692;PMS5003;66984;47.404;18.836;2023-05-24T05:10:21;26.00;25.00;16.75
77692;PMS5003;66984;47.404;18.836;2023-05-24T05:11:24;26.50;25.25;16.00
77692;PMS5003;66984;47.404;18.836;2023-05-24T05:12:27;31.00;28.75;16.00
77692;PMS5003;66984;47.404;18.836;2023-05-24T05:13:30;30.00;28.00;14.00
77692;PMS5003;66984;47.404;18.836;2023-05-24T05:14:33;28.00;26.00;14.00
77692;PMS5003;66984;47.404;18.836;2023-05-24T05:15:36;27.00;24.50;13.75
77692;PMS5003;66984;47.404;18.836;2023-05-24T05:16:41;30.25;28.50;16.50
77692;PMS5003;66984;47.404;18.836;2023-05-24T05:17:44;33.25;30.25;19.00
77692;PMS5003;66984;47.404;18.836;2023-05-24T05:18:47;31.00;29.00;18.75
77692;PMS5003;66984;47.404;18.836;2023-05-24T05:19:50;29.00;28.00;17.00
77692;PMS5003;66984;47.404;18.836;2023-05-24T05:20:53;30.00;27.25;17.00
77692;PMS5003;66984;47.404;18.836;2023-05-24T05:21:56;29.00;25.00;16.00
77692;PMS5003;66984;47.404;18.836;2023-05-24T05:22:59;31.00;28.50;16.00
77692;PMS5003;66984;47.404;18.836;2023-05-24T05:24:02;28.75;27.00;16.00
77692;PMS5003;66984;47.404;18.836;2023-05-24T05:25:05;29.00;26.00;15.00
77692;PMS5003;66984;47.404;18.836;2023-05-24T05:26:08;29.00;26.25;16.00
77692;PMS5003;66984;47.404;18.836;2023-05-24T05:27:11;28.00;27.00;17.00
77692;PMS5003;66984;47.404;18.836;2023-05-24T05:28:14;27.50;25.75;17.00
77692;PMS5003;66984;47.404;18.836;2023-05-24T05:29:18;29.00;27.00;16.00
77692;PMS5003;66984;47.404;18.836;2023-05-24T05:30:24;28.00;26.50;16.00
77692;PMS5003;66984;47.404;18.836;2023-05-24T05:31:28;29.00;28.00;17.00
77692;PMS5003;66984;47.404;18.836;2023-05-24T05:32:31;28.25;25.50;16.00
77692;PMS5003;66984;47.404;18.836;2023-05-24T05:33:34;30.50;26.25;16.00
77692;PMS5003;66984;47.404;18.836;2023-05-24T05:34:37;31.00;28.00;15.00
77692;PMS5003;66984;47.404;18.836;2023-05-24T05:35:40;28.00;26.00;15.00
77692;PMS5003;66984;47.404;18.836;2023-05-24T05:36:43;29.50;26.00;14.00
77692;PMS5003;66984;47.404;18.836;2023-05-24T05:37:45;31.00;27.00;15.00
77692;PMS5003;66984;47.404;18.836;2023-05-24T05:38:48;29.00;26.00;14.00
77692;PMS5003;66984;47.404;18.836;2023-05-24T05:39:51;30.00;29.00;15.00
77692;PMS5003;66984;47.404;18.836;2023-05-24T05:40:54;28.00;27.00;15.00
77692;PMS5003;66984;47.404;18.836;2023-05-24T05:41:57;27.50;27.00;17.00
77692;PMS5003;66984;47.404;18.836;2023-05-24T05:43:00;26.00;26.00;15.00
77692;PMS5003;66984;47.404;18.836;2023-05-24T05:44:03;25.00;24.75;14.00
77692;PMS5003;66984;47.404;18.836;2023-05-24T05:45:07;28.00;25.00;13.00
77692;PMS5003;66984;47.404;18.836;2023-05-24T05:46:10;27.00;25.00;13.00
77692;PMS5003;66984;47.404;18.836;2023-05-24T05:47:14;27.00;26.25;15.00
77692;PMS5003;66984;47.404;18.836;2023-05-24T05:48:17;27.25;24.50;15.00
77692;PMS5003;66984;47.404;18.836;2023-05-24T05:49:20;28.00;27.00;13.25
77692;PMS5003;66984;47.404;18.836;2023-05-24T05:50:23;27.50;25.00;14.00
77692;PMS5003;66984;47.404;18.836;2023-05-24T05:51:26;26.00;25.75;14.00
77692;PMS5003;66984;47.404;18.836;2023-05-24T05:52:29;24.00;24.00;14.00
77692;PMS5003;66984;47.404;18.836;2023-05-24T05:53:32;26.25;25.50;15.00
77692;PMS5003;66984;47.404;18.836;2023-05-24T05:54:36;24.00;24.00;14.00
77692;PMS5003;66984;47.404;18.836;2023-05-24T05:55:39;23.25;23.00;15.00
77692;PMS5003;66984;47.404;18.836;2023-05-24T05:56:42;26.00;26.00;15.00
77692;PMS5003;66984;47.404;18.836;2023-05-24T05:57:49;25.50;25.00;14.00
77692;PMS5003;66984;47.404;18.836;2023-05-24T05:58:52;27.00;26.00;14.25
77692;PMS5003;66984;47.404;18.836;2023-05-24T05:59:55;26.75;25.75;13.50
77692;PMS5003;66984;47.404;18.836;2023-05-24T06:00:58;26.00;25.00;13.00
77692;PMS5003;66984;47.404;18.836;2023-05-24T06:02:02;27.75;25.00;13.25
77692;PMS5003;66984;47.404;18.836;2023-05-24T06:03:05;27.00;27.00;14.00
77692;PMS5003;66984;47.404;18.836;2023-05-24T06:04:08;26.00;25.00;13.00
77692;PMS5003;66984;47.404;18.836;2023-05-24T06:05:12;26.00;25.00;14.25
77692;PMS5003;66984;47.404;18.836;2023-05-24T06:06:16;25.00;24.00;14.00
77692;PMS5003;66984;47.404;18.836;2023-05-24T06:07:19;25.00;24.50;14.50
77692;PMS5003;66984;47.404;18.836;2023-05-24T06:08:22;25.75;25.00;14.00
77692;PMS5003;66984;47.404;18.836;2023-05-24T06:09:25;25.25;23.00;13.00
77692;PMS5003;66984;47.404;18.836;2023-05-24T06:10:28;26.75;23.75;14.75